Time;durP1;ratioP1;P1;durP2;ratioP2;P2;SDS_P1;SDS_P2;PMS_P1;PMS_P2;Temp;Humidity;BMP_temperature;BMP_pressure;BME280_temperature;BME280_humidity;BME280_pressure;Samples;Min_cycle;Max_cycle;Signal;HPM_P1;HPM_P2
2022/06/11 00:01:09;;;;;;;;;;;;;;;;;;4967894;28;129274;-66
2022/06/11 00:03:36;;;;;;;;;;;;;;;;;;4963065;28;126062;-66
2022/06/11 00:06:03;;;;;;;;;;;;;;;;;;4956722;28;123269;-66
2022/06/11 00:08:29;;;;;;;;;;;;;;;;;;4972847;28;107285;-66
2022/06/11 00:10:56;;;;;;;;;;;;;;;;;;4962968;28;135544;-66
2022/06/11 00:13:22;;;;;;;;;;;;;;;;;;4966801;28;129140;-66
2022/06/11 00:15:48;;;;;;;;;;;;;;;;;;4963923;28;135502;-66
2022/06/11 00:18:15;;;;;;;;;;;;;;;;;;4967782;28;112473;-66
2022/06/11 00:20:41;;;;;;;;;;;;;;;;;;4981195;28;115989;-66
2022/06/11 00:23:07;;;;;;;;;;;;;;;;;;4965507;28;136669;-66
2022/06/11 00:25:34;;;;;;;;;;;;;;;;;;4960246;28;115980;-66
2022/06/11 00:28:01;;;;;;;;;;;;;;;;;;4962942;28;129033;-66
2022/06/11 00:30:27;;;;;;;;;;;;;;;;;;4964025;28;128162;-66
2022/06/11 00:32:55;;;;;;;;;;;;;;;;;;4959727;28;127848;-66
2022/06/11 00:35:21;;;;;;;;;;;;;;;;;;4961930;28;136738;-66
2022/06/11 00:37:47;;;;;;;;;;;;;;;;;;4965416;28;136497;-66
2022/06/11 00:40:14;;;;;;;;;;;;;;;;;;4955847;28;121885;-66
2022/06/11 00:42:40;;;;;;;;;;;;;;;;;;4962599;28;128244;-66
2022/06/11 00:45:06;;;;;;;;;;;;;;;;;;4958352;28;135208;-66
2022/06/11 00:47:32;;;;;;;;;;;;;;;;;;4964473;28;130300;-67
2022/06/11 00:49:59;;;;;;;;;;;;;;;;;;4965118;28;138259;-66
2022/06/11 00:52:25;;;;;;;;;;;;;;;;;;4963738;28;107492;-66
2022/06/11 00:54:52;;;;;;;;;;;;;;;;;;4968350;28;115199;-66
2022/06/11 00:57:18;;;;;;;;;;;;;;;;;;4962462;28;117713;-67
2022/06/11 00:59:44;;;;;;;;;;;;;;;;;;4966064;28;106854;-66
2022/06/11 01:02:10;;;;;;;;;;;;;;;;;;4964332;28;135364;-67
2022/06/11 01:04:37;;;;;;;;;;;;;;;;;;4961853;28;131974;-66
2022/06/11 01:07:03;;;;;;;;;;;;;;;;;;4961317;28;127098;-66
2022/06/11 01:09:29;;;;;;;;;;;;;;;;;;4964542;28;135957;-66
2022/06/11 01:11:56;;;;;;;;;;;;;;;;;;4958135;28;136038;-67
2022/06/11 01:14:22;;;;;;;;;;;;;;;;;;4986317;22;116847;-66
2022/06/11 01:16:48;;;;;;;;;;;;;;;;;;4987176;28;136290;-66
2022/06/11 01:19:14;;;;;;;;;;;;;;;;;;4980992;28;127525;-66
2022/06/11 01:21:41;;;;;;;;;;;;;;;;;;4986137;28;106526;-66
2022/06/11 01:24:07;;;;;;;;;;;;;;;;;;4986643;28;106558;-66
2022/06/11 01:26:33;;;;;;;;;;;;;;;;;;4985998;28;129307;-66
2022/06/11 01:29:00;;;;;;;;;;;;;;;;;;4984607;28;135818;-66
2022/06/11 01:31:26;;;;;;;;;;;;;;;;;;4985206;28;131744;-66
2022/06/11 01:33:52;;;;;;;;;;;;;;;;;;4982488;28;125022;-66
2022/06/11 01:36:19;;;;;;;;;;;;;;;;;;4984437;28;108578;-66
2022/06/11 01:38:45;;;;;;;;;;;;;;;;;;4984703;28;119289;-66
2022/06/11 01:41:11;;;;;;;;;;;;;;;;;;4982135;28;136272;-66
2022/06/11 01:43:38;;;;;;;;;;;;;;;;;;4982628;28;138540;-66
2022/06/11 01:46:04;;;;;;;;;;;;;;;;;;4986440;28;122555;-66
2022/06/11 01:48:30;;;;;;;;;;;;;;;;;;4982130;28;115951;-66
2022/06/11 01:50:57;;;;;;;;;;;;;;;;;;4984058;28;134797;-66
2022/06/11 01:53:23;;;;;;;;;;;;;;;;;;4986725;28;128853;-66
2022/06/11 01:55:49;;;;;;;;;;;;;;;;;;4985441;28;110314;-66
2022/06/11 01:58:16;;;;;;;;;;;;;;;;;;4988204;28;106312;-66
2022/06/11 02:00:42;;;;;;;;;;;;;;;;;;4983483;28;135465;-66
2022/06/11 02:03:09;;;;;;;;;;;;;;;;;;4984907;28;134155;-66
2022/06/11 02:05:36;;;;;;;;;;;;;;;;;;4976096;28;128134;-66
2022/06/11 02:08:03;;;;;;;;;;;;;;;;;;4980658;28;106808;-66
2022/06/11 02:10:29;;;;;;;;;;;;;;;;;;4981397;28;136329;-66
2022/06/11 02:12:56;;;;;;;;;;;;;;;;;;4974974;28;130623;-65
2022/06/11 02:15:22;;;;;;;;;;;;;;;;;;4976792;28;125927;-65
2022/06/11 02:17:48;;;;;;;;;;;;;;;;;;4990476;28;118365;-66
2022/06/11 02:20:14;;;;;;;;;;;;;;;;;;4975550;28;135012;-66
2022/06/11 02:22:41;;;;;;;;;;;;;;;;;;4977457;28;122329;-66
2022/06/11 02:25:07;;;;;;;;;;;;;;;;;;4980142;28;128969;-66
2022/06/11 02:27:33;;;;;;;;;;;;;;;;;;4982093;28;131311;-66
2022/06/11 02:30:00;;;;;;;;;;;;;;;;;;4984635;28;137273;-66
2022/06/11 02:32:26;;;;;;;;;;;;;;;;;;4982846;28;131139;-66
2022/06/11 02:34:52;;;;;;;;;;;;;;;;;;4983341;28;138644;-65
2022/06/11 02:37:19;;;;;;;;;;;;;;;;;;4983173;28;117830;-66
2022/06/11 02:39:45;;;;;;;;;;;;;;;;;;4990050;28;128753;-66
2022/06/11 02:42:12;;;;;;;;;;;;;;;;;;4981927;28;135668;-65
2022/06/11 02:44:38;;;;;;;;;;;;;;;;;;4980471;28;129264;-66
2022/06/11 02:47:04;;;;;;;;;;;;;;;;;;4980565;28;129283;-66
2022/06/11 02:49:30;;;;;;;;;;;;;;;;;;4981888;28;135982;-66
2022/06/11 02:51:57;;;;;;;;;;;;;;;;;;4982378;28;109001;-66
2022/06/11 02:54:25;;;;;;;;;;;;;;;;;;4985120;28;123929;-67
2022/06/11 02:56:51;;;;;;;;;;;;;;;;;;4973215;28;130011;-66
2022/06/11 02:59:18;;;;;;;;;;;;;;;;;;4985714;28;124720;-66
2022/06/11 03:01:44;;;;;;;;;;;;;;;;;;4981621;28;124338;-66
2022/06/11 03:04:10;;;;;;;;;;;;;;;;;;4976373;28;127949;-66
2022/06/11 03:06:40;;;;;;;;;;;;;;;;;;4983669;28;135059;-66
2022/06/11 03:09:07;;;;;;;;;;;;;;;;;;4983938;28;126740;-66
2022/06/11 03:11:33;;;;;;;;;;;;;;;;;;4981434;28;127081;-65
2022/06/11 03:13:59;;;;;;;;;;;;;;;;;;4979961;28;135270;-66
2022/06/11 03:16:26;;;;;;;;;;;;;;;;;;4985090;28;135702;-66
2022/06/11 03:18:52;;;;;;;;;;;;;;;;;;4985384;28;129714;-66
2022/06/11 03:21:18;;;;;;;;;;;;;;;;;;4986130;28;136326;-66
2022/06/11 03:23:44;;;;;;;;;;;;;;;;;;4989234;28;136479;-66
2022/06/11 03:26:11;;;;;;;;;;;;;;;;;;4988598;28;130420;-66
2022/06/11 03:28:37;;;;;;;;;;;;;;;;;;4984537;28;136778;-66
2022/06/11 03:31:06;;;;;;;;;;;;;;;;;;4986580;28;127195;-66
2022/06/11 03:33:32;;;;;;;;;;;;;;;;;;4984813;28;120493;-66
2022/06/11 03:35:58;;;;;;;;;;;;;;;;;;4984553;28;138303;-66
2022/06/11 03:38:25;;;;;;;;;;;;;;;;;;4983858;28;127771;-66
2022/06/11 03:40:51;;;;;;;;;;;;;;;;;;4988269;28;122829;-66
2022/06/11 03:43:18;;;;;;;;;;;;;;;;;;4980455;28;126148;-66
2022/06/11 03:45:44;;;;;;;;;;;;;;;;;;4991956;28;121220;-66
2022/06/11 03:48:11;;;;;;;;;;;;;;;;;;4982567;28;127661;-66
2022/06/11 03:50:37;;;;;;;;;;;;;;;;;;4985946;28;120843;-66
2022/06/11 03:53:03;;;;;;;;;;;;;;;;;;4986349;28;136078;-66
2022/06/11 03:55:30;;;;;;;;;;;;;;;;;;4984048;28;116276;-66
2022/06/11 03:57:56;;;;;;;;;;;;;;;;;;4982413;28;116419;-66
2022/06/11 04:01:14;;;;;;;;;;;;;;;;;;4985005;28;137254;-66
2022/06/11 04:03:09;;;;;;;;;;;;;;;;;;4979991;28;135255;-66
2022/06/11 04:05:36;;;;;;;;;;;;;;;;;;4981541;28;128999;-66
2022/06/11 04:08:02;;;;;;;;;;;;;;;;;;4976542;28;136233;-66
2022/06/11 04:10:28;;;;;;;;;;;;;;;;;;4987811;28;130819;-66
2022/06/11 04:12:55;;;;;;;;;;;;;;;;;;4980697;28;121442;-66
2022/06/11 04:15:21;;;;;;;;;;;;;;;;;;4986592;28;137586;-67
2022/06/11 04:17:47;;;;;;;;;;;;;;;;;;4985583;28;119049;-66
2022/06/11 04:20:14;;;;;;;;;;;;;;;;;;4981780;28;136584;-66
2022/06/11 04:22:40;;;;;;;;;;;;;;;;;;4986191;28;135879;-66
2022/06/11 04:25:06;;;;;;;;;;;;;;;;;;4982410;28;127303;-66
2022/06/11 04:27:33;;;;;;;;;;;;;;;;;;4988124;28;125886;-66
2022/06/11 04:29:59;;;;;;;;;;;;;;;;;;4984313;28;111194;-66
2022/06/11 04:32:25;;;;;;;;;;;;;;;;;;4981202;28;136052;-66
2022/06/11 04:34:52;;;;;;;;;;;;;;;;;;4987566;28;112140;-66
2022/06/11 04:37:18;;;;;;;;;;;;;;;;;;4981153;28;116321;-66
2022/06/11 04:39:44;;;;;;;;;;;;;;;;;;4976850;28;131018;-66
2022/06/11 04:42:11;;;;;;;;;;;;;;;;;;4983255;28;134394;-66
2022/06/11 04:44:37;;;;;;;;;;;;;;;;;;4987215;28;128814;-66
2022/06/11 04:47:03;;;;;;;;;;;;;;;;;;4981814;28;136576;-67
2022/06/11 04:49:30;;;;;;;;;;;;;;;;;;4986422;28;130400;-66
2022/06/11 04:51:56;;;;;;;;;;;;;;;;;;4980715;28;136426;-67
2022/06/11 04:54:22;;;;;;;;;;;;;;;;;;4987421;28;135856;-66
2022/06/11 04:56:49;;;;;;;;;;;;;;;;;;4981348;28;106751;-66
2022/06/11 04:59:15;;;;;;;;;;;;;;;;;;4985783;28;137266;-66
2022/06/11 05:01:41;;;;;;;;;;;;;;;;;;4985037;28;119944;-67
2022/06/11 05:04:08;;;;;;;;;;;;;;;;;;4980955;28;127891;-67
2022/06/11 05:06:37;;;;;;;;;;;;;;;;;;4982702;28;136694;-67
2022/06/11 05:09:03;;;;;;;;;;;;;;;;;;4987236;28;135234;-66
2022/06/11 05:11:29;;;;;;;;;;;;;;;;;;4985446;28;130004;-66
2022/06/11 05:13:56;;;;;;;;;;;;;;;;;;4985227;28;135769;-67
2022/06/11 05:16:22;;;;;;;;;;;;;;;;;;4986147;28;127308;-66
2022/06/11 05:18:48;;;;;;;;;;;;;;;;;;4986768;28;119120;-67
2022/06/11 05:21:14;;;;;;;;;;;;;;;;;;4980473;28;122633;-66
2022/06/11 05:23:41;;;;;;;;;;;;;;;;;;4986779;28;127441;-67
2022/06/11 05:26:12;;;;;;;;;;;;;;;;;;4983962;28;135203;-67
2022/06/11 05:28:38;;;;;;;;;;;;;;;;;;4983125;28;136332;-67
2022/06/11 05:31:05;;;;;;;;;;;;;;;;;;4987043;28;125199;-66
2022/06/11 05:33:31;;;;;;;;;;;;;;;;;;4979621;28;137015;-66
2022/06/11 05:35:57;;;;;;;;;;;;;;;;;;4978087;28;112094;-66
2022/06/11 05:38:24;;;;;;;;;;;;;;;;;;4985809;28;132718;-66
2022/06/11 05:40:50;;;;;;;;;;;;;;;;;;4983187;28;129463;-67
2022/06/11 05:43:16;;;;;;;;;;;;;;;;;;4982360;28;129402;-65
2022/06/11 05:45:42;;;;;;;;;;;;;;;;;;4986048;28;126535;-66
2022/06/11 05:48:09;;;;;;;;;;;;;;;;;;4985124;28;137163;-66
2022/06/11 05:50:35;;;;;;;;;;;;;;;;;;4980514;28;128663;-66
2022/06/11 05:53:01;;;;;;;;;;;;;;;;;;4983852;28;134118;-66
2022/06/11 05:55:27;;;;;;;;;;;;;;;;;;4988170;28;137099;-66
2022/06/11 05:57:54;;;;;;;;;;;;;;;;;;4986629;28;119608;-66
2022/06/11 06:00:20;;;;;;;;;;;;;;;;;;4979205;28;130555;-66
2022/06/11 06:02:47;;;;;;;;;;;;;;;;;;4982457;28;127812;-66
2022/06/11 06:05:13;;;;;;;;;;;;;;;;;;4984595;28;138013;-65
2022/06/11 06:07:40;;;;;;;;;;;;;;;;;;4981151;28;134813;-66
2022/06/11 06:10:06;;;;;;;;;;;;;;;;;;4978722;28;127931;-66
2022/06/11 06:12:32;;;;;;;;;;;;;;;;;;4985734;28;116390;-65
2022/06/11 06:15:00;;;;;;;;;;;;;;;;;;4983921;28;120752;-66
2022/06/11 06:17:26;;;;;;;;;;;;;;;;;;4980087;28;133991;-66
2022/06/11 06:19:59;;;;;;;;;;;;;;;;;;4976132;28;137172;-65
2022/06/11 06:22:26;;;;;;;;;;;;;;;;;;4985239;28;127150;-66
2022/06/11 06:24:52;;;;;;;;;;;;;;;;;;4983507;28;137441;-65
2022/06/11 06:27:18;;;;;;;;;;;;;;;;;;4984428;28;112243;-66
2022/06/11 06:29:45;;;;;;;;;;;;;;;;;;4984700;28;127365;-67
2022/06/11 06:32:11;;;;;;;;;;;;;;;;;;4981656;28;128470;-67
2022/06/11 06:34:37;;;;;;;;;;;;;;;;;;4980663;28;132548;-64
2022/06/11 06:37:04;;;;;;;;;;;;;;;;;;4988062;28;129867;-66
2022/06/11 06:39:31;;;;;;;;;;;;;;;;;;4980804;28;116209;-65
2022/06/11 06:41:58;;;;;;;;;;;;;;;;;;4981028;28;129291;-64
2022/06/11 06:44:24;;;;;;;;;;;;;;;;;;4978931;28;106099;-64
2022/06/11 06:46:50;;;;;;;;;;;;;;;;;;4977810;28;137120;-68
2022/06/11 06:49:17;;;;;;;;;;;;;;;;;;4983831;28;129791;-67
2022/06/11 06:51:43;;;;;;;;;;;;;;;;;;4975343;28;137393;-68
2022/06/11 06:54:09;;;;;;;;;;;;;;;;;;4982508;28;135874;-68
2022/06/11 06:56:36;;;;;;;;;;;;;;;;;;4983646;28;125130;-67
2022/06/11 06:59:02;;;;;;;;;;;;;;;;;;4987461;28;136593;-67
2022/06/11 07:01:28;;;;;;;;;;;;;;;;;;4982101;28;126534;-68
2022/06/11 07:03:55;;;;;;;;;;;;;;;;;;4980234;28;110260;-68
2022/06/11 07:06:41;;;;;;;;;;;;;;;;;;4984386;28;108280;-67
2022/06/11 07:09:07;;;;;;;;;;;;;;;;;;4983141;28;128002;-67
2022/06/11 07:11:34;;;;;;;;;;;;;;;;;;4989433;28;134174;-68
2022/06/11 07:14:00;;;;;;;;;;;;;;;;;;4984458;28;131401;-67
2022/06/11 07:16:26;;;;;;;;;;;;;;;;;;4983342;28;118264;-67
2022/06/11 07:18:53;;;;;;;;;;;;;;;;;;4984084;28;130005;-67
2022/06/11 07:21:19;;;;;;;;;;;;;;;;;;4988564;28;137173;-67
2022/06/11 07:23:45;;;;;;;;;;;;;;;;;;4983974;28;136984;-67
2022/06/11 07:26:12;;;;;;;;;;;;;;;;;;4983722;28;134206;-67
2022/06/11 07:28:38;;;;;;;;;;;;;;;;;;4995875;28;129008;-67
2022/06/11 07:31:04;;;;;;;;;;;;;;;;;;4988631;28;138561;-67
2022/06/11 07:33:31;;;;;;;;;;;;;;;;;;4984908;28;137772;-67
2022/06/11 07:35:57;;;;;;;;;;;;;;;;;;4985347;28;124438;-66
2022/06/11 07:38:26;;;;;;;;;;;;;;;;;;4984656;28;135657;-66
2022/06/11 07:40:53;;;;;;;;;;;;;;;;;;4986220;28;108377;-69
2022/06/11 07:43:19;;;;;;;;;;;;;;;;;;4981813;28;125257;-67
2022/06/11 07:45:45;;;;;;;;;;;;;;;;;;4980621;28;137382;-66
2022/06/11 07:48:12;;;;;;;;;;;;;;;;;;4986568;28;123837;-66
2022/06/11 07:50:38;;;;;;;;;;;;;;;;;;4986971;28;134830;-66
2022/06/11 07:53:05;;;;;;;;;;;;;;;;;;4978403;28;129227;-66
2022/06/11 07:55:32;;;;;;;;;;;;;;;;;;4983057;28;126272;-67
2022/06/11 07:57:58;;;;;;;;;;;;;;;;;;4984544;28;132523;-67
2022/06/11 08:00:24;;;;;;;;;;;;;;;;;;4977546;28;127101;-67
2022/06/11 08:02:50;;;;;;;;;;;;;;;;;;4977303;28;130575;-66
2022/06/11 08:05:17;;;;;;;;;;;;;;;;;;4988120;28;136065;-66
2022/06/11 08:07:43;;;;;;;;;;;;;;;;;;4981584;28;120582;-66
2022/06/11 08:10:10;;;;;;;;;;;;;;;;;;4982465;28;136952;-65
2022/06/11 08:12:36;;;;;;;;;;;;;;;;;;4982241;28;137958;-66
2022/06/11 08:15:03;;;;;;;;;;;;;;;;;;4986284;28;130171;-66
2022/06/11 08:17:29;;;;;;;;;;;;;;;;;;4988614;28;137036;-66
2022/06/11 08:19:56;;;;;;;;;;;;;;;;;;4981834;28;137863;-66
2022/06/11 08:22:22;;;;;;;;;;;;;;;;;;4986934;28;106220;-66
2022/06/11 08:24:49;;;;;;;;;;;;;;;;;;4989020;28;135131;-66
2022/06/11 08:27:15;;;;;;;;;;;;;;;;;;4985554;28;125941;-66
2022/06/11 08:29:42;;;;;;;;;;;;;;;;;;4986074;28;136907;-66
2022/06/11 08:32:09;;;;;;;;;;;;;;;;;;4982577;28;129679;-66
2022/06/11 08:34:36;;;;;;;;;;;;;;;;;;4986351;28;128569;-66
2022/06/11 08:37:02;;;;;;;;;;;;;;;;;;4980738;28;137447;-65
2022/06/11 08:39:28;;;;;;;;;;;;;;;;;;4984481;28;138975;-66
2022/06/11 08:41:55;;;;;;;;;;;;;;;;;;4982945;28;111762;-66
2022/06/11 08:44:21;;;;;;;;;;;;;;;;;;4982467;28;124603;-66
2022/06/11 08:46:48;;;;;;;;;;;;;;;;;;4984300;28;138216;-66
2022/06/11 08:49:14;;;;;;;;;;;;;;;;;;4984959;28;134169;-66
2022/06/11 08:51:41;;;;;;;;;;;;;;;;;;4981230;28;135858;-66
2022/06/11 08:54:07;;;;;;;;;;;;;;;;;;4979847;28;128486;-66
2022/06/11 08:56:33;;;;;;;;;;;;;;;;;;4985746;28;135659;-66
2022/06/11 08:59:05;;;;;;;;;;;;;;;;;;4982030;28;136458;-66
2022/06/11 09:01:32;;;;;;;;;;;;;;;;;;4984671;28;129393;-66
2022/06/11 09:03:58;;;;;;;;;;;;;;;;;;4983460;28;124869;-66
2022/06/11 09:06:25;;;;;;;;;;;;;;;;;;4976986;28;137099;-66
2022/06/11 09:08:52;;;;;;;;;;;;;;;;;;4980187;28;118466;-66
2022/06/11 09:11:18;;;;;;;;;;;;;;;;;;4983493;28;136337;-66
2022/06/11 09:13:44;;;;;;;;;;;;;;;;;;4979641;28;128187;-66
2022/06/11 09:16:11;;;;;;;;;;;;;;;;;;4975330;28;137952;-66
2022/06/11 09:18:37;;;;;;;;;;;;;;;;;;4978512;28;131282;-66
2022/06/11 09:21:03;;;;;;;;;;;;;;;;;;4983575;28;106261;-66
2022/06/11 09:23:30;;;;;;;;;;;;;;;;;;4979759;28;138187;-66
2022/06/11 09:25:56;;;;;;;;;;;;;;;;;;4985273;28;113310;-66
2022/06/11 09:28:22;;;;;;;;;;;;;;;;;;4979036;28;129683;-66
2022/06/11 09:30:49;;;;;;;;;;;;;;;;;;4986176;28;134474;-66
2022/06/11 09:33:16;;;;;;;;;;;;;;;;;;4982097;28;119947;-66
2022/06/11 09:35:42;;;;;;;;;;;;;;;;;;4986676;28;121005;-66
2022/06/11 09:38:08;;;;;;;;;;;;;;;;;;4978756;28;138043;-65
2022/06/11 09:40:35;;;;;;;;;;;;;;;;;;4984486;28;129543;-66
2022/06/11 09:43:01;;;;;;;;;;;;;;;;;;4977407;28;137789;-69
2022/06/11 09:45:27;;;;;;;;;;;;;;;;;;4976882;28;131051;-72
2022/06/11 09:47:54;;;;;;;;;;;;;;;;;;4980213;28;130629;-72
2022/06/11 09:50:21;;;;;;;;;;;;;;;;;;4986259;28;121944;-67
2022/06/11 09:52:47;;;;;;;;;;;;;;;;;;4977056;28;127222;-67
2022/06/11 09:55:14;;;;;;;;;;;;;;;;;;4981154;28;118100;-67
2022/06/11 09:57:40;;;;;;;;;;;;;;;;;;4981619;28;106983;-67
2022/06/11 10:00:07;;;;;;;;;;;;;;;;;;4980022;28;128913;-67
2022/06/11 10:02:37;;;;;;;;;;;;;;;;;;4983891;28;135326;-67
2022/06/11 10:05:03;;;;;;;;;;;;;;;;;;4984941;28;124260;-67
2022/06/11 10:07:29;;;;;;;;;;;;;;;;;;4985849;28;109754;-66
2022/06/11 10:09:56;;;;;;;;;;;;;;;;;;4977645;28;126290;-67
2022/06/11 10:12:22;;;;;;;;;;;;;;;;;;4986017;28;131555;-67
2022/06/11 10:14:50;;;;;;;;;;;;;;;;;;4981053;28;110120;-68
2022/06/11 10:17:16;;;;;;;;;;;;;;;;;;4983126;28;139009;-68
2022/06/11 10:19:43;;;;;;;;;;;;;;;;;;4981014;28;129425;-66
2022/06/11 10:22:14;;;;;;;;;;;;;;;;;;4982721;28;114473;-64
2022/06/11 10:24:40;;;;;;;;;;;;;;;;;;4985573;28;123795;-66
2022/06/11 10:27:06;;;;;;;;;;;;;;;;;;4984719;28;107738;-66
2022/06/11 10:29:33;;;;;;;;;;;;;;;;;;4983318;28;138503;-65
2022/06/11 10:32:00;;;;;;;;;;;;;;;;;;4980964;28;135407;-64
2022/06/11 10:34:26;;;;;;;;;;;;;;;;;;4986979;28;110894;-64
2022/06/11 10:36:52;;;;;;;;;;;;;;;;;;4974557;28;138100;-64
2022/06/11 10:39:19;;;;;;;;;;;;;;;;;;4982678;28;123174;-65
2022/06/11 10:41:45;;;;;;;;;;;;;;;;;;4977253;28;135248;-64
2022/06/11 10:44:12;;;;;;;;;;;;;;;;;;4976477;28;130624;-64
2022/06/11 10:46:38;;;;;;;;;;;;;;;;;;4976809;28;129663;-65
2022/06/11 10:49:05;;;;;;;;;;;;;;;;;;4972985;28;137355;-68
2022/06/11 10:51:31;;;;;;;;;;;;;;;;;;4977638;28;120580;-65
2022/06/11 10:53:58;;;;;;;;;;;;;;;;;;4981214;28;131974;-63
2022/06/11 10:56:25;;;;;;;;;;;;;;;;;;4987391;28;109825;-65
2022/06/11 10:58:51;;;;;;;;;;;;;;;;;;4984277;28;114789;-64
2022/06/11 11:01:17;;;;;;;;;;;;;;;;;;4982850;28;128802;-65
2022/06/11 11:03:44;;;;;;;;;;;;;;;;;;4979974;28;107839;-65
2022/06/11 11:06:10;;;;;;;;;;;;;;;;;;4977488;28;122447;-64
2022/06/11 11:08:36;;;;;;;;;;;;;;;;;;4981450;28;133863;-65
2022/06/11 11:11:03;;;;;;;;;;;;;;;;;;4979470;28;107834;-64
2022/06/11 11:13:29;;;;;;;;;;;;;;;;;;4984636;28;106419;-64
2022/06/11 11:15:56;;;;;;;;;;;;;;;;;;4985102;28;108101;-64
2022/06/11 11:18:22;;;;;;;;;;;;;;;;;;4985656;28;137425;-65
2022/06/11 11:20:48;;;;;;;;;;;;;;;;;;4984288;28;132685;-64
2022/06/11 11:23:15;;;;;;;;;;;;;;;;;;4975477;28;107687;-64
2022/06/11 11:25:41;;;;;;;;;;;;;;;;;;4983114;28;127336;-65
2022/06/11 11:28:08;;;;;;;;;;;;;;;;;;4983420;28;137000;-65
2022/06/11 11:30:34;;;;;;;;;;;;;;;;;;4984693;28;135701;-64
2022/06/11 11:33:01;;;;;;;;;;;;;;;;;;4976048;28;108709;-66
2022/06/11 11:35:27;;;;;;;;;;;;;;;;;;4975533;28;137993;-64
2022/06/11 11:37:54;;;;;;;;;;;;;;;;;;4979214;28;110596;-64
2022/06/11 11:40:20;;;;;;;;;;;;;;;;;;4984401;28;106618;-65
2022/06/11 11:42:46;;;;;;;;;;;;;;;;;;4982923;28;134895;-64
2022/06/11 11:45:13;;;;;;;;;;;;;;;;;;4978248;28;128452;-64
2022/06/11 11:47:39;;;;;;;;;;;;;;;;;;4978015;28;122725;-64
2022/06/11 11:50:05;;;;;;;;;;;;;;;;;;4978159;28;136586;-65
2022/06/11 11:52:31;;;;;;;;;;;;;;;;;;4980342;28;123272;-64
2022/06/11 11:54:58;;;;;;;;;;;;;;;;;;4983802;28;138217;-65
2022/06/11 11:57:24;;;;;;;;;;;;;;;;;;4976840;28;137676;-65
2022/06/11 11:59:51;;;;;;;;;;;;;;;;;;4981102;28;121643;-64
2022/06/11 12:02:17;;;;;;;;;;;;;;;;;;4982789;28;138849;-63
2022/06/11 12:04:43;;;;;;;;;;;;;;;;;;4980166;28;115025;-63
2022/06/11 12:07:10;;;;;;;;;;;;;;;;;;4978783;28;130834;-64
2022/06/11 12:09:36;;;;;;;;;;;;;;;;;;4982391;28;108026;-64
2022/06/11 12:12:03;;;;;;;;;;;;;;;;;;4979314;28;128535;-65
2022/06/11 12:14:29;;;;;;;;;;;;;;;;;;4994674;28;118329;-65
2022/06/11 12:16:56;;;;;;;;;;;;;;;;;;4980735;28;134178;-64
2022/06/11 12:19:23;;;;;;;;;;;;;;;;;;4983383;28;130760;-65
2022/06/11 12:21:49;;;;;;;;;;;;;;;;;;4985083;28;136204;-65
2022/06/11 12:24:15;;;;;;;;;;;;;;;;;;4988960;28;106663;-65
2022/06/11 12:26:42;;;;;;;;;;;;;;;;;;4977372;28;136515;-65
2022/06/11 12:29:08;;;;;;;;;;;;;;;;;;4970547;28;112079;-66
2022/06/11 12:31:35;;;;;;;;;;;;;;;;;;4970745;28;126029;-66
2022/06/11 12:34:04;;;;;;;;;;;;;;;;;;4970511;27;134011;-65
2022/06/11 12:36:30;;;;;;;;;;;;;;;;;;4971724;28;137152;-65
2022/06/11 12:38:57;;;;;;;;;;;;;;;;;;4976454;27;115608;-66
2022/06/11 12:41:23;;;;;;;;;;;;;;;;;;4980212;28;137713;-65
2022/06/11 12:43:49;;;;;;;;;;;;;;;;;;4980396;28;137707;-65
2022/06/11 12:46:16;;;;;;;;;;;;;;;;;;4984301;28;121734;-65
2022/06/11 12:48:42;;;;;;;;;;;;;;;;;;4978033;28;115514;-65
2022/06/11 12:51:08;;;;;;;;;;;;;;;;;;4988494;27;129549;-65
2022/06/11 12:53:35;;;;;;;;;;;;;;;;;;4983245;28;134168;-66
2022/06/11 12:56:01;;;;;;;;;;;;;;;;;;4982694;27;137873;-66
2022/06/11 12:58:27;;;;;;;;;;;;;;;;;;4980939;28;108248;-65
2022/06/11 13:00:57;;;;;;;;;;;;;;;;;;4984283;28;136839;-65
2022/06/11 13:03:23;;;;;;;;;;;;;;;;;;4983119;28;139314;-65
2022/06/11 13:05:50;;;;;;;;;;;;;;;;;;4982333;28;119467;-65
2022/06/11 13:08:18;;;;;;;;;;;;;;;;;;4976550;28;135741;-65
2022/06/11 13:10:44;;;;;;;;;;;;;;;;;;4976085;28;127293;-65
2022/06/11 13:13:11;;;;;;;;;;;;;;;;;;4981290;28;136869;-65
2022/06/11 13:15:38;;;;;;;;;;;;;;;;;;4982171;27;136583;-66
2022/06/11 13:18:04;;;;;;;;;;;;;;;;;;4969265;28;107785;-67
2022/06/11 13:20:30;;;;;;;;;;;;;;;;;;4983461;28;137850;-66
2022/06/11 13:22:56;;;;;;;;;;;;;;;;;;4980823;28;133693;-65
2022/06/11 13:25:23;;;;;;;;;;;;;;;;;;4979896;28;130486;-65
2022/06/11 13:27:49;;;;;;;;;;;;;;;;;;4983265;28;130599;-65
2022/06/11 13:30:16;;;;;;;;;;;;;;;;;;4999953;28;129671;-65
2022/06/11 13:32:45;;;;;;;;;;;;;;;;;;4977830;28;136912;-65
2022/06/11 13:35:12;;;;;;;;;;;;;;;;;;4977029;28;136543;-65
2022/06/11 13:37:38;;;;;;;;;;;;;;;;;;4977570;28;129660;-65
2022/06/11 13:40:04;;;;;;;;;;;;;;;;;;4970314;28;137305;-66
2022/06/11 13:42:31;;;;;;;;;;;;;;;;;;4975259;28;134098;-65
2022/06/11 13:44:57;;;;;;;;;;;;;;;;;;4979236;28;108332;-65
2022/06/11 13:47:23;;;;;;;;;;;;;;;;;;4985610;28;133687;-66
2022/06/11 13:49:50;;;;;;;;;;;;;;;;;;4985175;28;133066;-66
2022/06/11 13:52:16;;;;;;;;;;;;;;;;;;4984950;28;136322;-64
2022/06/11 13:57:28;;;;;;;;;;;;;;;;;;4973542;28;120265;-65
2022/06/11 13:59:54;;;;;;;;;;;;;;;;;;4983742;28;118492;-65
2022/06/11 14:02:20;;;;;;;;;;;;;;;;;;4974705;28;135874;-65
2022/06/11 14:04:47;;;;;;;;;;;;;;;;;;4979057;28;108021;-65
2022/06/11 14:07:13;;;;;;;;;;;;;;;;;;4980305;28;107953;-65
2022/06/11 14:12:24;;;;;;;;;;;;;;;;;;4985362;28;107568;-65
2022/06/11 14:14:55;;;;;;;;;;;;;;;;;;4982623;28;128924;-64
2022/06/11 14:17:22;;;;;;;;;;;;;;;;;;4979409;28;129184;-66
2022/06/11 14:19:48;;;;;;;;;;;;;;;;;;4979977;28;137766;-65
2022/06/11 14:22:14;;;;;;;;;;;;;;;;;;4981864;28;118481;-65
2022/06/11 14:24:40;;;;;;;;;;;;;;;;;;4982139;28;130208;-65
2022/06/11 14:27:07;;;;;;;;;;;;;;;;;;4980824;28;133894;-65
2022/06/11 14:29:34;;;;;;;;;;;;;;;;;;4980542;28;136953;-64
2022/06/11 14:32:01;;;;;;;;;;;;;;;;;;4985249;28;129634;-64
2022/06/11 14:34:28;;;;;;;;;;;;;;;;;;4979192;28;138005;-62
2022/06/11 14:36:55;;;;;;;;;;;;;;;;;;4981764;28;108528;-62
2022/06/11 14:39:21;;;;;;;;;;;;;;;;;;4982295;28;137261;-64
2022/06/11 14:41:47;;;;;;;;;;;;;;;;;;4995684;28;138122;-64
2022/06/11 14:44:15;;;;;;;;;;;;;;;;;;4980964;28;113578;-65
2022/06/11 14:46:45;;;;;;;;;;;;;;;;;;4978906;28;135246;-63
2022/06/11 14:49:11;;;;;;;;;;;;;;;;;;4978482;28;124554;-61
2022/06/11 14:51:39;;;;;;;;;;;;;;;;;;4983058;28;120733;-62
2022/06/11 14:54:06;;;;;;;;;;;;;;;;;;4985808;28;138526;-63
2022/06/11 14:56:32;;;;;;;;;;;;;;;;;;4981540;28;129092;-62
2022/06/11 14:58:59;;;;;;;;;;;;;;;;;;4984600;28;139909;-63
2022/06/11 15:01:25;;;;;;;;;;;;;;;;;;4978211;28;120997;-62
2022/06/11 15:03:51;;;;;;;;;;;;;;;;;;4980525;28;119163;-62
2022/06/11 15:06:22;;;;;;;;;;;;;;;;;;4982093;28;136651;-63
2022/06/11 15:08:48;;;;;;;;;;;;;;;;;;4976736;28;123751;-63
2022/06/11 15:11:14;;;;;;;;;;;;;;;;;;4980694;28;108505;-63
2022/06/11 15:13:41;;;;;;;;;;;;;;;;;;4976548;28;132361;-64
2022/06/11 15:16:07;;;;;;;;;;;;;;;;;;4985177;28;134485;-65
2022/06/11 15:18:33;;;;;;;;;;;;;;;;;;4984771;28;107786;-65
2022/06/11 15:21:00;;;;;;;;;;;;;;;;;;4984191;28;138082;-65
2022/06/11 15:23:26;;;;;;;;;;;;;;;;;;4984345;28;108439;-65
2022/06/11 15:25:53;;;;;;;;;;;;;;;;;;4984523;28;108065;-65
2022/06/11 15:28:19;;;;;;;;;;;;;;;;;;4968903;28;120458;-65
2022/06/11 15:30:48;;;;;;;;;;;;;;;;;;4974419;28;108597;-68
2022/06/11 15:33:16;;;;;;;;;;;;;;;;;;4978263;28;116538;-66
2022/06/11 15:35:42;;;;;;;;;;;;;;;;;;4983012;28;140077;-66
2022/06/11 15:38:08;;;;;;;;;;;;;;;;;;4982182;28;126962;-65
2022/06/11 15:40:35;;;;;;;;;;;;;;;;;;4983176;28;120118;-66
2022/06/11 15:43:03;;;;;;;;;;;;;;;;;;4980640;28;108845;-67
2022/06/11 15:45:29;;;;;;;;;;;;;;;;;;4985538;27;107698;-66
2022/06/11 15:47:55;;;;;;;;;;;;;;;;;;4980280;28;123880;-65
2022/06/11 15:50:22;;;;;;;;;;;;;;;;;;4999049;27;111940;-67
2022/06/11 15:52:48;;;;;;;;;;;;;;;;;;4980732;27;130280;-65
2022/06/11 15:55:15;;;;;;;;;;;;;;;;;;4981212;28;119372;-66
2022/06/11 15:57:41;;;;;;;;;;;;;;;;;;4984464;28;129931;-65
2022/06/11 16:00:08;;;;;;;;;;;;;;;;;;4990720;28;108880;-66
2022/06/11 16:02:41;;;;;;;;;;;;;;;;;;4982411;28;106706;-65
2022/06/11 16:05:08;;;;;;;;;;;;;;;;;;4981664;28;137277;-66
2022/06/11 16:07:34;;;;;;;;;;;;;;;;;;4989080;28;136839;-67
2022/06/11 16:10:00;;;;;;;;;;;;;;;;;;4985434;28;107187;-66
2022/06/11 16:12:29;;;;;;;;;;;;;;;;;;4981422;28;135021;-65
2022/06/11 16:14:56;;;;;;;;;;;;;;;;;;4983319;28;136868;-65
2022/06/11 16:17:23;;;;;;;;;;;;;;;;;;4981451;28;121812;-66
2022/06/11 16:19:51;;;;;;;;;;;;;;;;;;4975808;28;120505;-67
2022/06/11 16:22:22;;;;;;;;;;;;;;;;;;4986884;27;137970;-66
2022/06/11 16:24:49;;;;;;;;;;;;;;;;;;4975817;28;128244;-66
2022/06/11 16:27:15;;;;;;;;;;;;;;;;;;4984625;28;132053;-66
2022/06/11 16:29:41;;;;;;;;;;;;;;;;;;4978527;28;128847;-66